CXJ752 VVNB-VHHX
Flight info
| Callsign | CXJ752 |
|---|---|
| Flight time | 1h 17m |
| Altitude | 39000 |
| Route | PHUTA2A PHUTA DCT VDO DCT ALEKI/K0822S1190 DCT UDUTI DCT BOKAT DCT LATOP DCT TAMOT |
| Aircraft | B752/M-SDE2E3FGHIJ3J4J7RWXY/LB1 |
Departure
| Time | 2026-04-28 18:00 |
|---|---|
| Airport | Noi Bai International Airport (VVNB) |
Arrival
| Time | 2026-04-28 19:18 |
|---|---|
| Airport | Hong Kong International Airport Kai Tak (VHHX) |
| Time | Latitude | Longitude | Altitude | Speed | Heading |
|---|---|---|---|---|---|
| 2026-04-28 17:45 | 21.21731 | 105.79987 | 51 ft | 0 kts | 286° |
| 2026-04-28 17:55 | 21.21733 | 105.79979 | 51 ft | 4 kts | 287° |
| 2026-04-28 17:55 | 21.21762 | 105.79940 | 50 ft | 9 kts | 333° |
| 2026-04-28 17:55 | 21.21841 | 105.79954 | 50 ft | 13 kts | 20° |
| 2026-04-28 17:56 | 21.21918 | 105.79931 | 50 ft | 13 kts | 293° |
| 2026-04-28 17:56 | 21.21944 | 105.79847 | 50 ft | 12 kts | 287° |
| 2026-04-28 17:56 | 21.21971 | 105.79754 | 50 ft | 13 kts | 287° |
| 2026-04-28 17:56 | 21.22000 | 105.79651 | 50 ft | 15 kts | 287° |
| 2026-04-28 17:57 | 21.22034 | 105.79531 | 50 ft | 17 kts | 287° |
| 2026-04-28 17:57 | 21.22073 | 105.79398 | 50 ft | 19 kts | 289° |
| 2026-04-28 17:57 | 21.22117 | 105.79253 | 50 ft | 21 kts | 287° |
| 2026-04-28 17:57 | 21.22170 | 105.79162 | 50 ft | 12 kts | 346° |
| 2026-04-28 17:58 | 21.22256 | 105.79179 | 51 ft | 12 kts | 15° |
| 2026-04-28 17:58 | 21.22343 | 105.79208 | 53 ft | 13 kts | 18° |
| 2026-04-28 17:58 | 21.22435 | 105.79240 | 53 ft | 14 kts | 18° |
| 2026-04-28 17:58 | 21.22513 | 105.79287 | 53 ft | 9 kts | 83° |
| 2026-04-28 17:59 | 21.22507 | 105.79315 | 53 ft | 4 kts | 107° |
| 2026-04-28 17:59 | 21.22506 | 105.79318 | 53 ft | 0 kts | 107° |
| 2026-04-28 18:00 | 21.22500 | 105.79336 | 53 ft | 23 kts | 107° |
| 2026-04-28 18:00 | 21.22349 | 105.79859 | 53 ft | 122 kts | 109° |
| 2026-04-28 18:00 | 21.22040 | 105.80942 | 579 ft | 163 kts | 109° |
| 2026-04-28 18:00 | 21.21708 | 105.82082 | 1617 ft | 165 kts | 108° |
| 2026-04-28 18:01 | 21.21351 | 105.83289 | 2255 ft | 182 kts | 108° |
| 2026-04-28 18:01 | 21.20953 | 105.84637 | 2819 ft | 204 kts | 108° |
| 2026-04-28 18:01 | 21.20497 | 105.86182 | 3350 ft | 231 kts | 108° |
| 2026-04-28 18:01 | 21.19996 | 105.87888 | 4068 ft | 250 kts | 108° |
| 2026-04-28 18:02 | 21.19457 | 105.89716 | 4747 ft | 271 kts | 109° |
| 2026-04-28 18:02 | 21.18871 | 105.91705 | 5488 ft | 289 kts | 109° |
| 2026-04-28 18:02 | 21.18258 | 105.93751 | 6484 ft | 294 kts | 112° |
| 2026-04-28 18:02 | 21.17254 | 105.95651 | 7322 ft | 300 kts | 133° |
| 2026-04-28 18:03 | 21.15906 | 105.97384 | 8244 ft | 307 kts | 128° |
| 2026-04-28 18:03 | 21.14726 | 105.99315 | 9125 ft | 316 kts | 122° |
| 2026-04-28 18:03 | 21.13627 | 106.01354 | 10124 ft | 320 kts | 120° |
| 2026-04-28 18:03 | 21.12559 | 106.03481 | 10686 ft | 339 kts | 118° |
| 2026-04-28 18:04 | 21.11441 | 106.05818 | 11190 ft | 359 kts | 117° |
| 2026-04-28 18:04 | 21.10306 | 106.08242 | 11663 ft | 378 kts | 116° |
| 2026-04-28 18:04 | 21.09120 | 106.10805 | 12524 ft | 383 kts | 116° |
| 2026-04-28 18:04 | 21.07943 | 106.13362 | 13309 ft | 389 kts | 116° |
| 2026-04-28 18:05 | 21.06751 | 106.15964 | 14150 ft | 393 kts | 116° |
| 2026-04-28 18:05 | 21.05541 | 106.18604 | 14918 ft | 398 kts | 116° |
| 2026-04-28 18:05 | 21.04329 | 106.21252 | 15715 ft | 402 kts | 117° |
| 2026-04-28 18:05 | 21.03095 | 106.23946 | 16447 ft | 407 kts | 117° |
| 2026-04-28 18:06 | 21.01850 | 106.26663 | 17184 ft | 412 kts | 118° |
| 2026-04-28 18:06 | 21.00593 | 106.29406 | 17952 ft | 415 kts | 118° |
| 2026-04-28 18:06 | 20.99311 | 106.32202 | 18644 ft | 420 kts | 118° |
| 2026-04-28 18:06 | 20.98026 | 106.35004 | 19367 ft | 423 kts | 118° |
| 2026-04-28 18:07 | 20.96729 | 106.37830 | 20041 ft | 427 kts | 117° |
| 2026-04-28 18:07 | 20.95419 | 106.40698 | 20700 ft | 431 kts | 116° |
| 2026-04-28 18:07 | 20.94366 | 106.43696 | 21283 ft | 437 kts | 105° |
| 2026-04-28 18:07 | 20.93811 | 106.46908 | 21916 ft | 440 kts | 95° |
| 2026-04-28 18:08 | 20.93779 | 106.50167 | 22443 ft | 445 kts | 84° |
| 2026-04-28 18:08 | 20.94200 | 106.53464 | 23054 ft | 448 kts | 80° |
| 2026-04-28 18:08 | 20.94697 | 106.56773 | 23656 ft | 451 kts | 80° |
| 2026-04-28 18:08 | 20.95200 | 106.60089 | 24212 ft | 456 kts | 80° |
| 2026-04-28 18:09 | 20.95716 | 106.63443 | 24800 ft | 459 kts | 80° |
| 2026-04-28 18:09 | 20.96235 | 106.66795 | 25400 ft | 462 kts | 81° |
| 2026-04-28 18:09 | 20.96760 | 106.70173 | 26003 ft | 464 kts | 81° |
| 2026-04-28 18:09 | 20.97292 | 106.73601 | 26494 ft | 469 kts | 81° |
| 2026-04-28 18:10 | 20.97825 | 106.77030 | 27082 ft | 471 kts | 81° |
| 2026-04-28 18:10 | 20.98361 | 106.80486 | 27612 ft | 474 kts | 81° |
| 2026-04-28 18:10 | 20.98906 | 106.83999 | 28145 ft | 476 kts | 81° |
| 2026-04-28 18:10 | 20.99446 | 106.87488 | 28629 ft | 480 kts | 81° |
| 2026-04-28 18:11 | 20.99989 | 106.91002 | 29068 ft | 484 kts | 81° |
| 2026-04-28 18:11 | 21.00537 | 106.94547 | 29506 ft | 487 kts | 81° |
| 2026-04-28 18:11 | 21.01093 | 106.98156 | 29889 ft | 491 kts | 81° |
| 2026-04-28 18:11 | 21.01645 | 107.01743 | 30413 ft | 492 kts | 81° |
| 2026-04-28 18:12 | 21.02204 | 107.05374 | 30830 ft | 494 kts | 81° |
| 2026-04-28 18:12 | 21.02759 | 107.08993 | 31259 ft | 496 kts | 80° |
| 2026-04-28 18:12 | 21.03318 | 107.12631 | 31619 ft | 499 kts | 80° |
| 2026-04-28 18:12 | 21.03868 | 107.16223 | 32372 ft | 492 kts | 80° |
| 2026-04-28 18:13 | 21.04421 | 107.19841 | 32846 ft | 492 kts | 80° |
| 2026-04-28 18:13 | 21.04970 | 107.23430 | 33573 ft | 487 kts | 80° |
| 2026-04-28 18:13 | 21.05514 | 107.26994 | 34043 ft | 487 kts | 81° |
| 2026-04-28 18:13 | 21.06057 | 107.30563 | 34512 ft | 487 kts | 81° |
| 2026-04-28 18:14 | 21.06600 | 107.34130 | 34921 ft | 487 kts | 81° |
| 2026-04-28 18:14 | 21.07268 | 107.37688 | 35393 ft | 486 kts | 74° |
| 2026-04-28 18:14 | 21.08412 | 107.41113 | 35696 ft | 487 kts | 65° |
| 2026-04-28 18:14 | 21.09883 | 107.44363 | 36163 ft | 485 kts | 63° |
| 2026-04-28 18:15 | 21.11366 | 107.47613 | 36462 ft | 487 kts | 63° |
| 2026-04-28 18:15 | 21.12864 | 107.50886 | 36858 ft | 487 kts | 63° |
| 2026-04-28 18:15 | 21.14355 | 107.54133 | 37172 ft | 487 kts | 64° |
| 2026-04-28 18:15 | 21.15857 | 107.57398 | 37489 ft | 488 kts | 63° |
| 2026-04-28 18:16 | 21.17356 | 107.60658 | 37855 ft | 487 kts | 63° |
| 2026-04-28 18:16 | 21.18862 | 107.63932 | 38167 ft | 487 kts | 64° |
| 2026-04-28 18:16 | 21.20344 | 107.67153 | 38480 ft | 487 kts | 64° |
| 2026-04-28 18:16 | 21.21855 | 107.70440 | 38738 ft | 487 kts | 64° |
| 2026-04-28 18:17 | 21.24846 | 107.76948 | 38813 ft | 485 kts | 64° |
| 2026-04-28 18:17 | 21.27808 | 107.83402 | 38817 ft | 482 kts | 64° |
| 2026-04-28 18:18 | 21.30769 | 107.89860 | 38819 ft | 483 kts | 64° |
| 2026-04-28 18:18 | 21.33237 | 107.95249 | 38817 ft | 483 kts | 64° |
| 2026-04-28 18:19 | 21.36666 | 108.02744 | 38817 ft | 481 kts | 64° |
| 2026-04-28 18:19 | 21.39614 | 108.09199 | 38817 ft | 483 kts | 64° |
| 2026-04-28 18:20 | 21.42559 | 108.15653 | 38813 ft | 484 kts | 63° |
| 2026-04-28 18:20 | 21.45520 | 108.22151 | 38822 ft | 483 kts | 64° |
| 2026-04-28 18:21 | 21.48457 | 108.28605 | 38820 ft | 483 kts | 64° |
| 2026-04-28 18:21 | 21.51405 | 108.35091 | 38821 ft | 482 kts | 64° |
| 2026-04-28 18:22 | 21.54320 | 108.41512 | 38825 ft | 483 kts | 64° |
| 2026-04-28 18:22 | 21.57258 | 108.47991 | 38826 ft | 483 kts | 63° |
| 2026-04-28 18:23 | 21.60201 | 108.54491 | 38830 ft | 484 kts | 63° |
| 2026-04-28 18:23 | 21.63135 | 108.60980 | 38835 ft | 486 kts | 63° |
| 2026-04-28 18:24 | 21.65601 | 108.66438 | 38830 ft | 483 kts | 64° |
| 2026-04-28 18:24 | 21.69024 | 108.74025 | 38827 ft | 486 kts | 64° |
| 2026-04-28 18:25 | 21.71951 | 108.80521 | 38829 ft | 484 kts | 63° |
| 2026-04-28 18:26 | 21.76355 | 108.90313 | 38826 ft | 485 kts | 63° |
| 2026-04-28 18:26 | 21.79276 | 108.96817 | 38822 ft | 484 kts | 63° |
| 2026-04-28 18:27 | 21.82213 | 109.03365 | 38816 ft | 486 kts | 63° |
| 2026-04-28 18:27 | 21.84429 | 109.10209 | 38822 ft | 487 kts | 80° |
| 2026-04-28 18:28 | 21.84890 | 109.17451 | 38799 ft | 488 kts | 89° |
| 2026-04-28 18:28 | 21.85029 | 109.24765 | 38801 ft | 489 kts | 90° |
| 2026-04-28 18:29 | 21.85111 | 109.32010 | 38805 ft | 488 kts | 90° |
| 2026-04-28 18:29 | 21.85174 | 109.39339 | 38807 ft | 488 kts | 90° |
| 2026-04-28 18:30 | 21.85227 | 109.46655 | 38809 ft | 489 kts | 90° |
| 2026-04-28 18:30 | 21.85274 | 109.53968 | 38809 ft | 489 kts | 90° |
| 2026-04-28 18:31 | 21.85317 | 109.61255 | 38812 ft | 490 kts | 90° |
| 2026-04-28 18:31 | 21.85357 | 109.68598 | 38804 ft | 492 kts | 90° |
| 2026-04-28 18:32 | 21.85393 | 109.75969 | 38809 ft | 492 kts | 90° |
| 2026-04-28 18:32 | 21.85427 | 109.83287 | 38812 ft | 494 kts | 90° |
| 2026-04-28 18:33 | 21.85457 | 109.90702 | 38805 ft | 494 kts | 90° |
| 2026-04-28 18:33 | 21.85484 | 109.98102 | 38803 ft | 495 kts | 90° |
| 2026-04-28 18:34 | 21.85507 | 110.05490 | 38809 ft | 495 kts | 90° |
| 2026-04-28 18:34 | 21.85527 | 110.12895 | 38813 ft | 495 kts | 90° |
| 2026-04-28 18:35 | 21.85544 | 110.20313 | 38809 ft | 496 kts | 90° |
| 2026-04-28 18:35 | 21.85558 | 110.27734 | 38813 ft | 496 kts | 90° |
| 2026-04-28 18:36 | 21.85569 | 110.35098 | 38816 ft | 497 kts | 90° |
| 2026-04-28 18:36 | 21.85575 | 110.42550 | 38822 ft | 497 kts | 90° |
| 2026-04-28 18:37 | 21.85579 | 110.49948 | 38826 ft | 497 kts | 91° |
| 2026-04-28 18:37 | 21.85579 | 110.57362 | 38829 ft | 500 kts | 90° |
| 2026-04-28 18:38 | 21.85576 | 110.64824 | 38829 ft | 500 kts | 90° |
| 2026-04-28 18:38 | 21.85571 | 110.72253 | 38820 ft | 498 kts | 91° |
| 2026-04-28 18:39 | 21.85561 | 110.79710 | 38825 ft | 499 kts | 91° |
| 2026-04-28 18:39 | 21.85547 | 110.87163 | 38823 ft | 499 kts | 91° |
| 2026-04-28 18:40 | 21.85532 | 110.94617 | 38823 ft | 500 kts | 91° |
| 2026-04-28 18:40 | 21.85512 | 111.02091 | 38827 ft | 500 kts | 91° |
| 2026-04-28 18:41 | 21.85489 | 111.09550 | 38831 ft | 501 kts | 91° |
| 2026-04-28 18:41 | 21.85463 | 111.17046 | 38834 ft | 501 kts | 91° |
| 2026-04-28 18:42 | 21.85432 | 111.24538 | 38843 ft | 503 kts | 91° |
| 2026-04-28 18:42 | 21.85399 | 111.32037 | 38842 ft | 503 kts | 91° |
| 2026-04-28 18:43 | 21.85363 | 111.39535 | 38838 ft | 505 kts | 91° |
| 2026-04-28 18:43 | 21.85322 | 111.47045 | 38833 ft | 505 kts | 91° |
| 2026-04-28 18:44 | 21.85279 | 111.54599 | 38829 ft | 505 kts | 91° |
| 2026-04-28 18:44 | 21.85207 | 111.65882 | 38827 ft | 505 kts | 92° |
| 2026-04-28 18:45 | 21.85154 | 111.73438 | 38821 ft | 506 kts | 92° |
| 2026-04-28 18:45 | 21.85098 | 111.81024 | 38823 ft | 507 kts | 92° |
| 2026-04-28 18:46 | 21.85039 | 111.88550 | 38827 ft | 506 kts | 92° |
| 2026-04-28 18:46 | 21.85524 | 111.96068 | 38847 ft | 507 kts | 80° |
| 2026-04-28 18:47 | 21.86849 | 112.03539 | 38849 ft | 508 kts | 79° |
| 2026-04-28 18:47 | 21.88172 | 112.10998 | 38852 ft | 509 kts | 79° |
| 2026-04-28 18:48 | 21.89503 | 112.18485 | 38850 ft | 510 kts | 80° |
| 2026-04-28 18:48 | 21.90831 | 112.25969 | 38847 ft | 511 kts | 79° |
| 2026-04-28 18:49 | 21.91934 | 112.32192 | 38851 ft | 510 kts | 79° |
| 2026-04-28 18:49 | 21.93475 | 112.40918 | 38852 ft | 510 kts | 80° |
| 2026-04-28 18:50 | 21.94790 | 112.48379 | 38853 ft | 510 kts | 80° |
| 2026-04-28 18:50 | 21.96107 | 112.55873 | 38858 ft | 511 kts | 80° |
| 2026-04-28 18:51 | 21.97422 | 112.63380 | 38860 ft | 511 kts | 79° |
| 2026-04-28 18:51 | 21.98734 | 112.70885 | 38851 ft | 509 kts | 80° |
| 2026-04-28 18:52 | 22.00042 | 112.78404 | 38853 ft | 512 kts | 80° |
| 2026-04-28 18:52 | 22.01347 | 112.85909 | 38851 ft | 510 kts | 80° |
| 2026-04-28 18:53 | 22.02647 | 112.93416 | 38847 ft | 510 kts | 80° |
| 2026-04-28 18:53 | 22.04226 | 113.00862 | 38854 ft | 512 kts | 70° |
| 2026-04-28 18:54 | 22.06855 | 113.07954 | 38846 ft | 512 kts | 67° |
| 2026-04-28 18:54 | 22.09541 | 113.15060 | 38851 ft | 512 kts | 67° |
| 2026-04-28 18:55 | 22.12233 | 113.22155 | 38848 ft | 513 kts | 67° |
| 2026-04-28 18:55 | 22.14930 | 113.29266 | 38847 ft | 513 kts | 67° |
| 2026-04-28 18:56 | 22.17622 | 113.36370 | 38853 ft | 514 kts | 67° |
| 2026-04-28 18:56 | 22.19793 | 113.43707 | 38760 ft | 504 kts | 82° |
| 2026-04-28 18:57 | 22.20133 | 113.47360 | 38367 ft | 483 kts | 91° |
| 2026-04-28 18:57 | 22.19990 | 113.50895 | 37286 ft | 476 kts | 100° |
| 2026-04-28 18:57 | 22.19356 | 113.54342 | 35822 ft | 474 kts | 110° |
| 2026-04-28 18:57 | 22.18212 | 113.57642 | 34421 ft | 466 kts | 120° |
| 2026-04-28 18:58 | 22.16622 | 113.60658 | 32782 ft | 463 kts | 129° |
| 2026-04-28 18:58 | 22.14636 | 113.63321 | 31135 ft | 461 kts | 139° |
| 2026-04-28 18:58 | 22.12310 | 113.65575 | 29399 ft | 459 kts | 148° |
| 2026-04-28 18:58 | 22.09626 | 113.67396 | 27884 ft | 446 kts | 159° |
| 2026-04-28 18:59 | 22.06863 | 113.68772 | 26667 ft | 433 kts | 163° |
| 2026-04-28 18:59 | 22.04102 | 113.69898 | 25417 ft | 423 kts | 164° |
| 2026-04-28 18:59 | 22.01417 | 113.71009 | 24139 ft | 416 kts | 163° |
| 2026-04-28 18:59 | 21.98765 | 113.72131 | 22961 ft | 406 kts | 163° |
| 2026-04-28 19:00 | 21.96173 | 113.73238 | 21774 ft | 399 kts | 162° |
| 2026-04-28 19:00 | 21.93646 | 113.74324 | 20616 ft | 391 kts | 162° |
| 2026-04-28 19:00 | 21.91156 | 113.75398 | 19434 ft | 385 kts | 162° |
| 2026-04-28 19:00 | 21.88698 | 113.76460 | 18296 ft | 377 kts | 162° |
| 2026-04-28 19:01 | 21.86312 | 113.77493 | 17118 ft | 372 kts | 162° |
| 2026-04-28 19:01 | 21.83946 | 113.78568 | 16082 ft | 363 kts | 155° |
| 2026-04-28 19:01 | 21.81967 | 113.80101 | 15567 ft | 348 kts | 138° |
| 2026-04-28 19:01 | 21.80521 | 113.82151 | 14990 ft | 339 kts | 121° |
| 2026-04-28 19:02 | 21.79711 | 113.84506 | 14117 ft | 340 kts | 102° |
| 2026-04-28 19:02 | 21.79412 | 113.87005 | 13366 ft | 332 kts | 97° |
| 2026-04-28 19:02 | 21.79218 | 113.89376 | 13078 ft | 317 kts | 97° |
| 2026-04-28 19:02 | 21.79202 | 113.91821 | 12863 ft | 335 kts | 82° |
| 2026-04-28 19:03 | 21.79843 | 113.94205 | 12685 ft | 336 kts | 63° |
| 2026-04-28 19:03 | 21.81160 | 113.96300 | 12577 ft | 340 kts | 45° |
| 2026-04-28 19:03 | 21.82970 | 113.97859 | 12370 ft | 329 kts | 26° |
| 2026-04-28 19:03 | 21.85039 | 113.98796 | 12172 ft | 319 kts | 10° |
| 2026-04-28 19:04 | 21.87224 | 113.99054 | 11998 ft | 314 kts | 356° |
| 2026-04-28 19:04 | 21.89439 | 113.99119 | 11796 ft | 316 kts | 360° |
| 2026-04-28 19:04 | 21.91633 | 113.99294 | 11589 ft | 315 kts | 1° |
| 2026-04-28 19:04 | 21.93799 | 113.99509 | 11381 ft | 314 kts | 2° |
| 2026-04-28 19:05 | 21.95976 | 113.99751 | 11177 ft | 313 kts | 2° |
| 2026-04-28 19:05 | 21.98160 | 114.00010 | 10983 ft | 313 kts | 2° |
| 2026-04-28 19:05 | 22.00311 | 114.00272 | 10791 ft | 312 kts | 2° |
| 2026-04-28 19:05 | 22.02467 | 114.00539 | 10593 ft | 310 kts | 2° |
| 2026-04-28 19:06 | 22.04632 | 114.00810 | 10384 ft | 310 kts | 3° |
| 2026-04-28 19:06 | 22.06761 | 114.01079 | 10134 ft | 305 kts | 3° |
| 2026-04-28 19:06 | 22.08810 | 114.01651 | 9897 ft | 300 kts | 25° |
| 2026-04-28 19:06 | 22.10449 | 114.03021 | 9685 ft | 303 kts | 45° |
| 2026-04-28 19:07 | 22.11894 | 114.04683 | 9428 ft | 305 kts | 39° |
| 2026-04-28 19:07 | 22.13704 | 114.05823 | 9219 ft | 296 kts | 13° |
| 2026-04-28 19:07 | 22.15701 | 114.06019 | 9098 ft | 286 kts | 347° |
| 2026-04-28 19:07 | 22.17569 | 114.05332 | 8918 ft | 283 kts | 329° |
| 2026-04-28 19:08 | 22.19340 | 114.04375 | 8610 ft | 282 kts | 326° |
| 2026-04-28 19:08 | 22.20795 | 114.03059 | 8328 ft | 267 kts | 300° |
| 2026-04-28 19:08 | 22.21454 | 114.01283 | 8147 ft | 250 kts | 274° |
| 2026-04-28 19:08 | 22.21567 | 113.99461 | 7996 ft | 240 kts | 270° |
| 2026-04-28 19:09 | 22.21618 | 113.97681 | 7825 ft | 234 kts | 268° |
| 2026-04-28 19:09 | 22.21627 | 113.95967 | 7647 ft | 227 kts | 267° |
| 2026-04-28 19:09 | 22.21613 | 113.94305 | 7352 ft | 215 kts | 266° |
| 2026-04-28 19:09 | 22.21584 | 113.92705 | 7149 ft | 210 kts | 265° |
| 2026-04-28 19:10 | 22.21546 | 113.91165 | 6927 ft | 208 kts | 265° |
| 2026-04-28 19:10 | 22.21698 | 113.89619 | 6684 ft | 211 kts | 289° |
| 2026-04-28 19:10 | 22.22628 | 113.88325 | 6212 ft | 232 kts | 321° |
| 2026-04-28 19:10 | 22.24200 | 113.87732 | 5775 ft | 248 kts | 356° |
| 2026-04-28 19:11 | 22.25845 | 113.88121 | 5596 ft | 246 kts | 30° |
| 2026-04-28 19:11 | 22.27241 | 113.89185 | 5367 ft | 242 kts | 37° |
| 2026-04-28 19:11 | 22.28606 | 113.90224 | 5121 ft | 237 kts | 34° |
| 2026-04-28 19:11 | 22.29806 | 113.91326 | 4908 ft | 228 kts | 46° |
| 2026-04-28 19:12 | 22.30934 | 113.92550 | 4671 ft | 227 kts | 54° |
| 2026-04-28 19:12 | 22.31582 | 113.94062 | 4408 ft | 222 kts | 82° |
| 2026-04-28 19:12 | 22.31735 | 113.95701 | 4088 ft | 224 kts | 90° |
| 2026-04-28 19:12 | 22.31844 | 113.97367 | 3822 ft | 225 kts | 89° |
| 2026-04-28 19:13 | 22.31961 | 113.99062 | 3556 ft | 224 kts | 90° |
| 2026-04-28 19:13 | 22.32074 | 114.00745 | 3264 ft | 223 kts | 90° |
| 2026-04-28 19:13 | 22.32183 | 114.02361 | 2956 ft | 209 kts | 89° |
| 2026-04-28 19:13 | 22.32284 | 114.03863 | 2666 ft | 196 kts | 90° |
| 2026-04-28 19:14 | 22.32377 | 114.05263 | 2387 ft | 180 kts | 90° |
| 2026-04-28 19:14 | 22.32462 | 114.06548 | 2218 ft | 162 kts | 91° |
| 2026-04-28 19:14 | 22.32538 | 114.07702 | 2001 ft | 147 kts | 90° |
| 2026-04-28 19:14 | 22.32604 | 114.08752 | 1781 ft | 135 kts | 92° |
| 2026-04-28 19:15 | 22.32668 | 114.09761 | 1626 ft | 138 kts | 91° |
| 2026-04-28 19:15 | 22.32735 | 114.10823 | 1445 ft | 139 kts | 91° |
| 2026-04-28 19:15 | 22.32803 | 114.11850 | 1257 ft | 138 kts | 91° |
| 2026-04-28 19:15 | 22.32847 | 114.12543 | 1128 ft | 137 kts | 91° |
| 2026-04-28 19:16 | 22.32932 | 114.13873 | 882 ft | 134 kts | 90° |
| 2026-04-28 19:16 | 22.32999 | 114.14880 | 721 ft | 136 kts | 90° |
| 2026-04-28 19:16 | 22.33070 | 114.15894 | 533 ft | 135 kts | 90° |
| 2026-04-28 19:16 | 22.33142 | 114.16889 | 370 ft | 132 kts | 90° |
| 2026-04-28 19:17 | 22.33207 | 114.17883 | 293 ft | 134 kts | 95° |
| 2026-04-28 19:17 | 22.32919 | 114.18783 | 185 ft | 127 kts | 132° |
| 2026-04-28 19:17 | 22.32325 | 114.19474 | 119 ft | 122 kts | 136° |
| 2026-04-28 19:17 | 22.31738 | 114.20138 | 35 ft | 119 kts | 136° |
| 2026-04-28 19:18 | 22.31252 | 114.20686 | 32 ft | 73 kts | 133° |
| 2026-04-28 19:18 | 22.31016 | 114.20955 | 32 ft | 18 kts | 133° |
| 2026-04-28 19:18 | 22.30958 | 114.21054 | 33 ft | 8 kts | 67° |
| 2026-04-28 19:18 | 22.31017 | 114.21093 | 33 ft | 10 kts | 349° |
| 2026-04-28 19:19 | 22.31081 | 114.21037 | 32 ft | 14 kts | 314° |
| 2026-04-28 19:19 | 22.31160 | 114.20949 | 32 ft | 17 kts | 313° |
| 2026-04-28 19:19 | 22.31250 | 114.20845 | 32 ft | 19 kts | 312° |
| 2026-04-28 19:19 | 22.31347 | 114.20730 | 32 ft | 21 kts | 313° |
| 2026-04-28 19:20 | 22.31460 | 114.20613 | 32 ft | 23 kts | 316° |
| 2026-04-28 19:20 | 22.31570 | 114.20492 | 32 ft | 22 kts | 311° |
| 2026-04-28 19:20 | 22.31675 | 114.20360 | 32 ft | 23 kts | 314° |
| 2026-04-28 19:20 | 22.31794 | 114.20231 | 32 ft | 25 kts | 314° |
| 2026-04-28 19:21 | 22.31921 | 114.20090 | 32 ft | 27 kts | 313° |
| 2026-04-28 19:21 | 22.32042 | 114.19952 | 32 ft | 22 kts | 314° |
| 2026-04-28 19:21 | 22.32157 | 114.19826 | 32 ft | 24 kts | 314° |
| 2026-04-28 19:21 | 22.32272 | 114.19698 | 32 ft | 18 kts | 315° |
| 2026-04-28 19:22 | 22.32356 | 114.19724 | 32 ft | 13 kts | 38° |
| 2026-04-28 19:22 | 22.32409 | 114.19735 | 32 ft | 11 kts | 359° |
| 2026-04-28 19:22 | 22.32449 | 114.19733 | 32 ft | 0 kts | 357° |